createdAt,value
2018-12-15T00:01:11.588Z,94955.41
2018-12-15T00:03:39.125Z,94953.47
2018-12-15T00:06:06.673Z,94954.23
2018-12-15T00:08:34.243Z,94952.06
2018-12-15T00:11:02.130Z,94952.19
2018-12-15T00:13:29.666Z,94957.30
2018-12-15T00:15:57.202Z,94948.31
2018-12-15T00:18:24.723Z,94968.13
2018-12-15T00:20:52.255Z,94949.95
2018-12-15T00:23:19.931Z,94956.72
2018-12-15T00:25:47.644Z,94946.48
2018-12-15T00:28:15.151Z,94958.27
2018-12-15T00:30:42.683Z,94948.50
2018-12-15T00:33:10.338Z,94946.38
2018-12-15T00:35:38.159Z,94947.73
2018-12-15T00:38:05.683Z,94939.66
2018-12-15T00:40:33.355Z,94944.44
2018-12-15T00:43:00.873Z,94940.83
2018-12-15T00:45:28.409Z,94939.03
2018-12-15T00:47:55.959Z,94938.07
2018-12-15T00:50:23.811Z,94940.11
2018-12-15T00:52:51.356Z,94937.48
2018-12-15T00:55:18.872Z,94933.48
2018-12-15T00:57:46.414Z,94931.22
2018-12-15T01:00:14.678Z,94934.30
2018-12-15T01:02:42.531Z,94940.06
2018-12-15T01:05:10.693Z,94941.41
2018-12-15T01:07:38.388Z,94944.55
2018-12-15T01:10:06.099Z,94933.30
2018-12-15T01:12:33.647Z,94929.23
2018-12-15T01:15:01.185Z,94938.07
2018-12-15T01:17:28.717Z,94949.46
2018-12-15T01:19:56.329Z,94939.06
2018-12-15T01:22:23.877Z,94925.77
2018-12-15T01:24:51.699Z,94922.60
2018-12-15T01:27:19.866Z,94931.58
2018-12-15T01:29:47.404Z,94929.11
2018-12-15T01:32:14.936Z,94916.23
2018-12-15T01:34:43.393Z,94930.70
2018-12-15T01:37:11.228Z,94921.78
2018-12-15T01:39:38.755Z,94936.52
2018-12-15T01:42:06.289Z,94927.25
2018-12-15T01:44:33.818Z,94918.20
2018-12-15T01:47:01.375Z,94911.73
2018-12-15T01:49:29.178Z,94912.63
2018-12-15T01:51:56.711Z,94922.34
2018-12-15T01:54:24.239Z,94920.14
2018-12-15T01:56:51.755Z,94923.11
2018-12-15T01:59:19.272Z,94920.80
2018-12-15T02:01:47.297Z,94922.66
2018-12-15T02:04:14.827Z,94911.88
2018-12-15T02:06:42.366Z,94902.94
2018-12-15T02:09:10.022Z,94908.89
2018-12-15T02:11:37.570Z,94907.38
2018-12-15T02:14:05.378Z,94906.28
2018-12-15T02:16:33.555Z,94898.06
2018-12-15T02:19:01.559Z,94909.66
2018-12-15T02:21:29.124Z,94909.41
2018-12-15T02:23:56.658Z,94903.31
2018-12-15T02:26:24.535Z,94904.94
2018-12-15T02:28:52.076Z,94911.11
2018-12-15T02:31:19.607Z,94914.69
2018-12-15T02:33:47.159Z,94910.16
2018-12-15T02:36:14.750Z,94909.52
2018-12-15T02:38:42.438Z,94916.36
2018-12-15T02:41:10.061Z,94909.64
2018-12-15T02:43:37.714Z,94897.27
2018-12-15T02:46:05.246Z,94901.53
2018-12-15T02:48:32.778Z,94896.06
2018-12-15T02:51:00.336Z,94905.38
2018-12-15T02:53:28.482Z,94892.01
2018-12-15T02:55:56.014Z,94899.14
2018-12-15T02:58:23.535Z,94881.70
2018-12-15T03:00:51.061Z,94890.16
2018-12-15T03:03:18.825Z,94890.73
2018-12-15T03:05:46.387Z,94891.22
2018-12-15T03:08:13.913Z,94891.16
2018-12-15T03:10:41.453Z,94893.95
2018-12-15T03:13:09.032Z,94889.57
2018-12-15T03:15:36.588Z,94887.77
2018-12-15T03:18:04.139Z,94893.58
2018-12-15T03:20:31.682Z,94895.98
2018-12-15T03:22:59.239Z,94903.29
2018-12-15T03:25:26.890Z,94917.53
2018-12-15T03:27:54.778Z,94906.52
2018-12-15T03:30:22.313Z,94904.88
2018-12-15T03:32:49.906Z,94905.17
2018-12-15T03:35:17.534Z,94911.11
2018-12-15T03:37:45.074Z,94895.02
2018-12-15T03:40:12.630Z,94905.73
2018-12-15T03:42:40.348Z,94904.43
2018-12-15T03:45:07.885Z,94902.73
2018-12-15T03:47:35.429Z,94908.91
2018-12-15T03:50:03.120Z,94904.27
2018-12-15T03:52:30.665Z,94913.64
2018-12-15T03:54:58.461Z,94909.52
2018-12-15T03:57:25.979Z,94898.56
2018-12-15T03:59:53.624Z,94895.22
2018-12-15T04:02:21.177Z,94899.73
2018-12-15T04:04:48.839Z,94893.63
2018-12-15T04:07:16.407Z,94910.42
2018-12-15T04:09:44.199Z,94899.39
2018-12-15T04:12:11.739Z,94899.55
2018-12-15T04:14:39.268Z,94897.48
2018-12-15T04:17:06.802Z,94892.06
2018-12-15T04:19:34.584Z,94891.80
2018-12-15T04:22:19.894Z,94902.12
2018-12-15T04:24:47.742Z,94904.67
2018-12-15T04:27:15.272Z,94907.16
2018-12-15T04:29:42.785Z,94905.81
2018-12-15T04:32:10.297Z,94894.21
2018-12-15T04:34:37.811Z,94897.50
2018-12-15T04:37:05.641Z,94894.80
2018-12-15T04:39:33.177Z,94901.08
2018-12-15T04:42:00.704Z,94910.16
2018-12-15T04:44:28.227Z,94882.67
2018-12-15T04:46:55.781Z,94888.45
2018-12-15T04:49:23.578Z,94898.27
2018-12-15T04:51:51.099Z,94907.31
2018-12-15T04:54:18.630Z,94899.73
2018-12-15T04:56:46.157Z,94921.74
2018-12-15T04:59:14.223Z,94904.95
2018-12-15T05:01:42.478Z,94902.44
2018-12-15T05:04:10.018Z,94904.55
2018-12-15T05:06:37.570Z,94901.84
2018-12-15T05:09:06.255Z,94899.14
2018-12-15T05:11:33.798Z,94900.20
2018-12-15T05:14:01.614Z,94903.44
2018-12-15T05:16:29.354Z,94903.84
2018-12-15T05:18:56.952Z,94894.02
2018-12-15T05:21:24.502Z,94901.08
2018-12-15T05:23:52.043Z,94901.53
2018-12-15T05:26:19.602Z,94901.80
2018-12-15T05:28:47.158Z,94908.22
2018-12-15T05:31:14.750Z,94897.07
2018-12-15T05:33:42.325Z,94899.20
2018-12-15T05:36:09.916Z,94907.27
2018-12-15T05:38:37.804Z,94895.22
2018-12-15T05:41:05.344Z,94891.75
2018-12-15T05:43:32.877Z,94907.27
2018-12-15T05:46:00.413Z,94892.72
2018-12-15T05:48:27.937Z,94890.73
2018-12-15T05:50:55.589Z,94909.05
2018-12-15T05:53:23.105Z,94886.13
2018-12-15T05:55:50.644Z,94895.94
2018-12-15T05:58:18.180Z,94897.95
2018-12-15T06:00:45.707Z,94900.34
2018-12-15T06:03:13.495Z,94892.49
2018-12-15T06:05:41.018Z,94892.20
2018-12-15T06:08:08.530Z,94897.87
2018-12-15T06:10:36.079Z,94896.46
2018-12-15T06:13:03.685Z,94897.05
2018-12-15T06:15:31.443Z,94887.33
2018-12-15T06:17:58.994Z,94891.12
2018-12-15T06:20:26.563Z,94877.15
2018-12-15T06:22:54.096Z,94880.81
2018-12-15T06:25:21.663Z,94899.19
2018-12-15T06:27:49.269Z,94908.73
2018-12-15T06:30:16.829Z,94912.20
2018-12-15T06:32:44.399Z,94906.03
2018-12-15T06:35:11.903Z,94905.32
2018-12-15T06:37:39.479Z,94906.38
2018-12-15T06:40:07.587Z,94919.20
2018-12-15T06:42:35.134Z,94926.69
2018-12-15T06:45:02.663Z,94918.95
2018-12-15T06:47:30.217Z,94917.77
2018-12-15T06:49:57.772Z,94921.91
2018-12-15T06:52:25.660Z,94911.45
2018-12-15T06:54:53.235Z,94909.78
2018-12-15T06:57:20.775Z,94919.72
2018-12-15T06:59:48.634Z,94924.28
2018-12-15T07:02:16.167Z,94927.09
2018-12-15T07:04:43.678Z,94924.86
2018-12-15T07:07:11.470Z,94927.02
2018-12-15T07:09:39.001Z,94938.48
2018-12-15T07:12:06.560Z,94930.98
2018-12-15T07:14:34.091Z,94933.80
2018-12-15T07:17:01.603Z,94937.94
2018-12-15T07:19:29.431Z,94941.17
2018-12-15T07:21:56.934Z,94943.05
2018-12-15T07:33:24.400Z,94952.44
2018-12-15T07:35:51.924Z,94956.47
2018-12-15T07:38:19.499Z,94941.40
2018-12-15T07:40:47.336Z,94950.64
2018-12-15T07:43:14.853Z,94945.41
2018-12-15T07:45:42.372Z,94952.22
2018-12-15T07:48:10.266Z,94937.51
2018-12-15T07:50:37.776Z,94951.09
2018-12-15T07:53:05.285Z,94945.33
2018-12-15T07:55:33.274Z,94957.13
2018-12-15T07:58:00.787Z,94956.63
2018-12-15T08:00:30.646Z,94961.13
2018-12-15T08:02:58.511Z,94967.02
2018-12-15T08:05:26.036Z,94972.52
2018-12-15T08:07:53.537Z,94970.33
2018-12-15T08:10:24.252Z,94961.73
2018-12-15T08:12:56.849Z,94970.30
2018-12-15T08:15:25.507Z,94966.48
2018-12-15T08:17:53.019Z,94963.91
2018-12-15T08:20:46.712Z,94968.08
2018-12-15T08:23:14.255Z,94953.65
2018-12-15T08:25:42.028Z,94960.64
2018-12-15T08:28:09.623Z,94957.83
2018-12-15T08:30:37.234Z,94964.08
2018-12-15T08:33:04.872Z,94959.56
2018-12-15T08:35:32.396Z,94966.09
2018-12-15T08:38:00.191Z,94971.83
2018-12-15T08:40:27.720Z,94966.39
2018-12-15T08:42:55.530Z,94961.32
2018-12-15T08:45:23.027Z,94963.86
2018-12-15T08:47:50.559Z,94960.88
2018-12-15T08:50:18.115Z,94945.00
2018-12-15T08:52:45.635Z,94962.26
2018-12-15T08:55:27.102Z,94964.72
2018-12-15T08:57:54.616Z,94958.23
2018-12-15T09:00:22.151Z,94967.50
2018-12-15T09:02:49.661Z,94957.06
2018-12-15T09:05:17.191Z,94960.78
2018-12-15T09:07:45.056Z,94955.34
2018-12-15T09:10:12.582Z,94941.33
2018-12-15T09:12:40.087Z,94946.55
2018-12-15T09:15:07.602Z,94942.31
2018-12-15T09:17:35.109Z,94943.98
2018-12-15T09:20:02.736Z,94942.67
2018-12-15T09:22:30.272Z,94941.33
2018-12-15T09:24:57.769Z,94929.91
2018-12-15T09:27:25.746Z,94925.50
2018-12-15T09:29:53.333Z,94928.59
2018-12-15T09:32:21.189Z,94930.95
2018-12-15T09:34:48.705Z,94929.12
2018-12-15T09:37:16.241Z,94917.08
2018-12-15T09:39:43.745Z,94917.92
2018-12-15T09:42:14.076Z,94916.64
2018-12-15T09:44:41.615Z,94916.30
2018-12-15T09:47:09.173Z,94916.09
2018-12-15T09:49:36.979Z,94900.39
2018-12-15T09:52:04.510Z,94905.66
2018-12-15T09:54:32.453Z,94916.30
2018-12-15T09:56:59.980Z,94908.25
2018-12-15T09:59:27.835Z,94914.05
2018-12-15T10:01:55.355Z,94909.03
2018-12-15T10:04:23.007Z,94917.64
2018-12-15T10:06:51.104Z,94900.23
2018-12-15T10:09:22.277Z,94905.62
2018-12-15T10:11:49.815Z,94904.34
2018-12-15T10:14:17.349Z,94902.37
2018-12-15T10:16:45.144Z,94906.69
2018-12-15T10:19:12.668Z,94900.61
2018-12-15T10:21:40.444Z,94896.17
2018-12-15T10:24:07.948Z,94904.30
2018-12-15T10:26:35.478Z,94903.53
2018-12-15T10:29:02.970Z,94884.83
2018-12-15T10:34:35.637Z,94894.52
2018-12-15T10:37:04.444Z,94884.53
2018-12-15T10:39:32.308Z,94870.26
2018-12-15T10:42:00.132Z,94873.96
2018-12-15T10:44:27.630Z,94868.20
2018-12-15T10:46:55.135Z,94870.03
2018-12-15T10:49:22.916Z,94868.97
2018-12-15T10:51:50.430Z,94856.18
2018-12-15T10:54:17.923Z,94853.23
2018-12-15T10:56:45.421Z,94845.75
2018-12-15T10:59:12.929Z,94848.88
2018-12-15T11:01:40.795Z,94841.77
2018-12-15T11:04:08.569Z,94838.52
2018-12-15T11:06:36.071Z,94836.77
2018-12-15T11:09:06.565Z,94824.35
2018-12-15T11:11:34.073Z,94815.36
2018-12-15T11:14:06.600Z,94813.22
2018-12-15T11:16:34.135Z,94824.39
2018-12-15T11:19:01.694Z,94820.78
2018-12-15T11:21:29.487Z,94823.17
2018-12-15T11:23:56.988Z,94820.81
2018-12-15T11:26:24.525Z,94818.00
2018-12-15T11:28:52.134Z,94806.94
2018-12-15T11:31:19.695Z,94801.10
2018-12-15T11:33:47.469Z,94804.51
2018-12-15T11:36:14.958Z,94804.70
2018-12-15T11:38:42.473Z,94798.42
2018-12-15T11:41:10.007Z,94796.55
2018-12-15T11:43:37.504Z,94806.05
2018-12-15T11:46:05.228Z,94811.23
2018-12-15T11:48:33.038Z,94802.31
2018-12-15T11:51:00.574Z,94798.23
2018-12-15T11:53:28.133Z,94799.50
2018-12-15T11:55:56.000Z,94790.05
2018-12-15T11:58:23.516Z,94788.98
2018-12-15T12:00:51.016Z,94788.13
2018-12-15T12:03:18.551Z,94774.03
2018-12-15T12:05:46.090Z,94770.67
2018-12-15T12:08:13.592Z,94764.78
2018-12-15T12:10:41.374Z,94768.41
2018-12-15T12:13:08.911Z,94762.77
2018-12-15T12:15:36.424Z,94760.45
2018-12-15T12:18:04.109Z,94765.61
2018-12-15T12:20:31.616Z,94754.77
2018-12-15T12:22:59.110Z,94765.52
2018-12-15T12:25:32.834Z,94771.30
2018-12-15T12:28:00.415Z,94757.05
2018-12-15T12:30:27.914Z,94752.27
2018-12-15T12:32:55.483Z,94762.52
2018-12-15T12:35:22.984Z,94762.13
2018-12-15T12:37:50.785Z,94764.02
2018-12-15T12:40:18.310Z,94769.84
2018-12-15T12:42:45.817Z,94764.30
2018-12-15T12:45:13.430Z,94761.30
2018-12-15T12:47:40.931Z,94765.23
2018-12-15T12:50:08.563Z,94772.48
2018-12-15T12:52:36.315Z,94767.45
2018-12-15T12:55:04.473Z,94770.67
2018-12-15T12:57:31.975Z,94770.84
2018-12-15T12:59:59.907Z,94767.75
2018-12-15T13:02:27.437Z,94768.82
2018-12-15T13:04:54.954Z,94776.62
2018-12-15T13:07:22.992Z,94774.82
2018-12-15T13:09:50.497Z,94759.72
2018-12-15T13:12:18.078Z,94768.75
2018-12-15T13:14:45.613Z,94773.88
2018-12-15T13:17:13.128Z,94772.13
2018-12-15T13:19:40.643Z,94777.30
2018-12-15T13:22:08.550Z,94779.05
2018-12-15T13:24:36.106Z,94785.61
2018-12-15T13:27:03.726Z,94782.07
2018-12-15T13:29:31.476Z,94787.04
2018-12-15T13:31:59.238Z,94770.53
2018-12-15T13:34:26.740Z,94778.48
2018-12-15T13:36:54.741Z,94788.08
2018-12-15T13:39:22.242Z,94789.88
2018-12-15T13:41:49.740Z,94795.77
2018-12-15T13:44:17.520Z,94793.73
2018-12-15T13:46:45.021Z,94774.41
2018-12-15T13:49:12.546Z,94776.02
2018-12-15T13:51:40.382Z,94764.25
2018-12-15T13:54:07.944Z,94772.03
2018-12-15T13:56:35.459Z,94780.23
2018-12-15T13:59:02.996Z,94800.27
2018-12-15T14:01:30.509Z,94810.20
2018-12-15T14:03:58.024Z,94799.16
2018-12-15T14:06:25.865Z,94798.22
2018-12-15T14:08:53.373Z,94799.41
2018-12-15T14:11:20.894Z,94788.53
2018-12-15T14:13:48.719Z,94778.05
2018-12-15T14:16:16.238Z,94789.41
2018-12-15T14:18:43.745Z,94789.77
2018-12-15T14:21:11.515Z,94787.73
2018-12-15T14:23:39.053Z,94787.97
2018-12-15T14:26:06.616Z,94777.01
2018-12-15T14:28:34.407Z,94777.64
2018-12-15T14:31:01.921Z,94783.66
2018-12-15T14:33:29.415Z,94770.41
2018-12-15T14:35:56.954Z,94770.56
2018-12-15T14:38:24.467Z,94767.36
2018-12-15T14:40:52.022Z,94765.32
2018-12-15T14:43:19.538Z,94762.23
2018-12-15T14:45:47.090Z,94752.50
2018-12-15T14:48:14.610Z,94771.17
2018-12-15T14:50:42.133Z,94760.99
2018-12-15T14:53:09.686Z,94767.19
2018-12-15T14:55:37.224Z,94760.68
2018-12-15T14:58:04.754Z,94757.46
2018-12-15T15:00:32.312Z,94754.16
2018-12-15T15:02:59.831Z,94758.55
2018-12-15T15:05:27.693Z,94762.21
2018-12-15T15:07:55.213Z,94767.03
2018-12-15T15:10:22.741Z,94763.81
2018-12-15T15:12:50.260Z,94754.89
2018-12-15T15:15:17.775Z,94758.97
2018-12-15T15:17:45.337Z,94762.55
2018-12-15T15:20:13.045Z,94756.87
2018-12-15T15:22:40.558Z,94753.62
2018-12-15T15:25:08.129Z,94750.00
2018-12-15T15:27:35.641Z,94751.68
2018-12-15T15:30:04.807Z,94750.08
2018-12-15T15:32:32.315Z,94762.71
2018-12-15T15:34:59.820Z,94751.77
2018-12-15T15:37:27.477Z,94768.97
2018-12-15T15:39:55.344Z,94768.38
2018-12-15T15:42:22.840Z,94768.90
2018-12-15T15:44:50.748Z,94767.69
2018-12-15T15:47:18.264Z,94767.00
2018-12-15T15:49:45.924Z,94763.95
2018-12-15T15:52:13.470Z,94764.19
2018-12-15T15:54:43.051Z,94761.64
2018-12-15T15:57:10.570Z,94753.89
2018-12-15T15:59:38.292Z,94749.09
2018-12-15T16:02:06.366Z,94749.32
2018-12-15T16:04:37.679Z,94751.75
2018-12-15T16:07:05.451Z,94757.31
2018-12-15T16:09:32.959Z,94752.84
2018-12-15T16:12:00.469Z,94752.66
2018-12-15T16:14:28.276Z,94751.66
2018-12-15T16:16:55.778Z,94750.98
2018-12-15T16:19:23.648Z,94746.81
2018-12-15T16:21:51.411Z,94750.48
2018-12-15T16:24:18.968Z,94758.64
2018-12-15T16:26:46.471Z,94761.95
2018-12-15T16:29:13.986Z,94763.05
2018-12-15T16:31:41.488Z,94755.92
2018-12-15T16:34:26.613Z,94759.05
2018-12-15T16:36:54.173Z,94753.03
2018-12-15T16:39:21.686Z,94757.87
2018-12-15T16:41:49.526Z,94759.83
2018-12-15T16:44:17.471Z,94747.41
2018-12-15T16:46:45.018Z,94748.72
2018-12-15T16:49:19.139Z,94748.36
2018-12-15T16:51:46.679Z,94759.32
2018-12-15T16:54:14.207Z,94744.56
2018-12-15T16:56:42.051Z,94744.89
2018-12-15T16:59:09.571Z,94742.17
2018-12-15T17:01:37.474Z,94744.22
2018-12-15T17:04:05.099Z,94743.30
2018-12-15T17:06:32.884Z,94749.55
2018-12-15T17:09:00.392Z,94755.25
2018-12-15T17:11:27.924Z,94739.36
2018-12-15T17:13:55.442Z,94754.39
2018-12-15T17:16:26.795Z,94742.86
2018-12-15T17:18:54.343Z,94748.47
2018-12-15T17:21:21.872Z,94746.34
2018-12-15T17:23:49.563Z,94744.80
2018-12-15T17:26:17.091Z,94752.63
2018-12-15T17:28:44.894Z,94751.77
2018-12-15T17:31:12.425Z,94743.63
2018-12-15T17:33:40.230Z,94743.20
2018-12-15T17:36:07.739Z,94749.46
2018-12-15T17:38:35.557Z,94741.94
2018-12-15T17:41:03.077Z,94737.31
2018-12-15T17:43:30.603Z,94726.72
2018-12-15T17:45:58.139Z,94729.70
2018-12-15T17:48:26.089Z,94739.13
2018-12-15T17:50:53.659Z,94742.17
2018-12-15T17:53:21.303Z,94750.77
2018-12-15T17:55:48.963Z,94746.59
2018-12-15T17:58:16.477Z,94750.77
2018-12-15T18:00:44.028Z,94747.36
2018-12-15T18:03:11.551Z,94761.95
2018-12-15T18:05:39.434Z,94757.29
2018-12-15T18:08:06.959Z,94739.36
2018-12-15T18:10:34.740Z,94743.61
2018-12-15T18:13:02.252Z,94737.02
2018-12-15T18:15:29.771Z,94733.11
2018-12-15T18:17:57.295Z,94740.58
2018-12-15T18:20:25.173Z,94732.42
2018-12-15T18:22:53.049Z,94739.95
2018-12-15T18:25:20.558Z,94737.87
2018-12-15T18:27:48.525Z,94740.30
2018-12-15T18:30:16.181Z,94739.08
2018-12-15T18:32:43.980Z,94748.77
2018-12-15T18:35:11.545Z,94754.47
2018-12-15T18:37:39.097Z,94759.31
2018-12-15T18:40:07.521Z,94750.23
2018-12-15T18:42:41.354Z,94756.50
2018-12-15T18:45:09.070Z,94748.77
2018-12-15T18:47:37.115Z,94750.23
2018-12-15T18:50:07.257Z,94747.59
2018-12-15T18:52:34.791Z,94754.80
2018-12-15T18:55:02.851Z,94752.70
2018-12-15T18:57:30.364Z,94735.96
2018-12-15T18:59:58.195Z,94741.97
2018-12-15T19:02:25.717Z,94755.48
2018-12-15T19:04:53.511Z,94733.03
2018-12-15T19:07:21.023Z,94728.78
2018-12-15T19:09:48.740Z,94738.24
2018-12-15T19:12:16.273Z,94722.44
2018-12-15T19:14:43.784Z,94728.39
2018-12-15T19:17:11.639Z,94738.07
2018-12-15T19:19:39.215Z,94729.92
2018-12-15T19:22:06.721Z,94727.42
2018-12-15T19:24:34.227Z,94736.71
2018-12-15T19:27:01.960Z,94735.43
2018-12-15T19:29:29.472Z,94740.37
2018-12-15T19:31:57.067Z,94729.66
2018-12-15T19:34:24.592Z,94723.32
2018-12-15T19:36:52.155Z,94728.16
2018-12-15T19:39:19.742Z,94731.12
2018-12-15T19:41:48.530Z,94723.14
2018-12-15T19:44:16.046Z,94718.97
2018-12-15T19:46:43.558Z,94727.20
2018-12-15T19:49:11.324Z,94717.67
2018-12-15T19:51:38.879Z,94726.02
2018-12-15T19:54:06.641Z,94717.30
2018-12-15T19:56:34.173Z,94723.23
2018-12-15T19:59:01.706Z,94715.17
2018-12-15T20:01:29.247Z,94720.52
2018-12-15T20:03:56.801Z,94724.34
2018-12-15T20:06:24.313Z,94710.61
2018-12-15T20:08:51.859Z,94714.59
2018-12-15T20:11:19.359Z,94711.34
2018-12-15T20:13:47.005Z,94712.10
2018-12-15T20:16:14.898Z,94705.85
2018-12-15T20:18:42.419Z,94716.86
2018-12-15T20:21:09.984Z,94690.37
2018-12-15T20:23:37.849Z,94708.89
2018-12-15T20:26:15.392Z,94714.77
2018-12-15T20:28:42.913Z,94714.67
2018-12-15T20:31:10.723Z,94720.70
2018-12-15T20:33:38.522Z,94717.81
2018-12-15T20:36:06.812Z,94718.58
2018-12-15T20:38:34.312Z,94713.91
2018-12-15T20:41:01.826Z,94716.95
2018-12-15T20:43:29.688Z,94722.20
2018-12-15T20:45:57.214Z,94715.82
2018-12-15T20:48:24.714Z,94708.66
2018-12-15T20:50:52.312Z,94714.41
2018-12-15T20:53:19.833Z,94704.48
2018-12-15T20:55:47.363Z,94705.07
2018-12-15T20:58:14.886Z,94707.69
2018-12-15T21:00:42.435Z,94703.37
2018-12-15T21:03:10.599Z,94706.67
2018-12-15T21:05:38.475Z,94711.52
2018-12-15T21:08:06.061Z,94699.51
2018-12-15T21:10:33.691Z,94695.19
2018-12-15T21:13:01.216Z,94694.84
2018-12-15T21:15:28.873Z,94696.59
2018-12-15T21:17:56.756Z,94692.95
2018-12-15T21:20:24.272Z,94685.61
2018-12-15T21:22:51.859Z,94682.70
2018-12-15T21:25:19.401Z,94680.37
2018-12-15T21:27:47.090Z,94647.47
2018-12-15T21:30:14.676Z,94636.48
2018-12-15T21:32:42.428Z,94637.59
2018-12-15T21:35:09.969Z,94664.78
2018-12-15T21:37:38.031Z,94678.52
2018-12-15T21:40:06.431Z,94677.02
2018-12-15T21:42:35.816Z,94674.61
2018-12-15T21:45:10.312Z,94681.13
2018-12-15T21:47:38.118Z,94689.15
2018-12-15T21:50:05.900Z,94682.34
2018-12-15T21:52:33.413Z,94682.39
2018-12-15T21:55:00.952Z,94681.37
2018-12-15T21:57:28.498Z,94679.95
2018-12-15T21:59:56.012Z,94670.25
2018-12-15T22:02:23.788Z,94683.54
2018-12-15T22:04:51.319Z,94678.52
2018-12-15T22:07:18.815Z,94678.27
2018-12-15T22:09:46.357Z,94667.39
2018-12-15T22:12:13.890Z,94671.89
2018-12-15T22:14:41.395Z,94667.05
2018-12-15T22:17:08.930Z,94657.53
2018-12-15T22:19:36.440Z,94660.70
2018-12-15T22:22:03.944Z,94657.98
2018-12-15T22:24:31.807Z,94653.14
2018-12-15T22:26:59.404Z,94652.96
2018-12-15T22:29:26.974Z,94659.28
2018-12-15T22:31:54.679Z,94647.70
2018-12-15T22:34:22.181Z,94638.32
2018-12-15T22:36:49.741Z,94637.24
2018-12-15T22:39:17.345Z,94642.51
2018-12-15T22:41:45.228Z,94631.20
2018-12-15T22:44:12.763Z,94634.64
2018-12-15T22:46:40.330Z,94632.58
2018-12-15T22:49:07.872Z,94634.67
2018-12-15T22:51:35.515Z,94645.47
2018-12-15T22:54:03.273Z,94625.38
2018-12-15T22:56:30.816Z,94635.02
2018-12-15T22:58:58.328Z,94636.80
2018-12-15T23:01:26.315Z,94626.27
2018-12-15T23:03:53.822Z,94627.52
2018-12-15T23:06:21.656Z,94625.21
2018-12-15T23:08:49.185Z,94614.27
2018-12-15T23:11:17.042Z,94624.33
2018-12-15T23:13:44.585Z,94614.39
2018-12-15T23:16:12.375Z,94610.65
2018-12-15T23:18:39.897Z,94618.36
2018-12-15T23:21:07.430Z,94619.94
2018-12-15T23:23:35.353Z,94602.03
2018-12-15T23:26:02.872Z,94610.02
2018-12-15T23:28:30.384Z,94605.16
2018-12-15T23:30:58.248Z,94614.26
2018-12-15T23:33:25.792Z,94613.62
2018-12-15T23:35:53.297Z,94599.41
2018-12-15T23:38:20.805Z,94613.95
2018-12-15T23:40:48.335Z,94602.23
2018-12-15T23:43:16.145Z,94603.73
2018-12-15T23:45:43.657Z,94599.45
2018-12-15T23:48:11.174Z,94594.27
2018-12-15T23:50:38.742Z,94611.48
2018-12-15T23:53:06.244Z,94586.62
2018-12-15T23:55:33.765Z,94589.39
2018-12-15T23:58:01.311Z,94578.50
